PWSweather.com
Personal Weather Stations
Station Observations
IROGLAN40
AalgaardNO 4330

AalgaardNO 4330

Lat: 58.773, Lon: 5.846

Elevation: 326

Station Type: Davis Vanatge Pro2

www.mavahome.com

High Low Average
Temperature 35.8°F2.1°C 32.5°F0.3°C 34.5°F1.4°C
Dew Point 27.9°F-2.3°C 24.3°F-4.3°C 26.9°F-2.8°C
Winds 12.7 mph 20.4 kmh 3.5 mph 5.6 kmh 8.0 mph S12.9 kmh S
Wind Gusts 24.2 mph38.9 kmh 3.5 mph5.6 kmh 14.0 mph22.5 kmh
Humidity 79% 68% 73%
Pressure 30.51 in1033.2 mb 30.36 in1028.1 mb -
Precipitation 0.00 in0.0 mm - -
Hour Temp Dew Point Humidity Winds Wind Gusts Pressure Precip Precip Rate Daily Precip Total
12:00 AM 32.5°F0.3°C 26.7°F-2.9°C 79% 10.4 mph SE16.7 kmh SE 13.8 mph22.2 kmh 30.51 in1033.2 mb - 0.00 in0.0 mm 0.00 in0.0 mm
12:10 AM 32.8°F0.4°C 26.7°F-2.9°C 78% 9.2 mph SE14.8 kmh SE 13.8 mph22.2 kmh 30.50 in1032.8 mb - 0.00 in0.0 mm 0.00 in0.0 mm
12:20 AM 32.8°F0.4°C 26.7°F-2.9°C 78% 10.4 mph ESE16.7 kmh ESE 15.0 mph24.1 kmh 30.50 in1032.8 mb - 0.00 in0.0 mm 0.00 in0.0 mm
12:30 AM 32.8°F0.4°C 26.7°F-2.9°C 78% 8.1 mph SE13.0 kmh SE 13.8 mph22.2 kmh 30.51 in1033.2 mb - 0.00 in0.0 mm 0.00 in0.0 mm
12:40 AM 33.0°F0.6°C 26.9°F-2.8°C 78% 10.4 mph SE16.7 kmh SE 15.0 mph24.1 kmh 30.51 in1033.2 mb - 0.00 in0.0 mm 0.00 in0.0 mm
12:50 AM 33.0°F0.6°C 26.9°F-2.8°C 78% 8.1 mph SE13.0 kmh SE 9.2 mph14.8 kmh 30.50 in1032.8 mb - 0.00 in0.0 mm 0.00 in0.0 mm
01:00 AM 33.2°F0.7°C 27.1°F-2.7°C 78% 10.4 mph SE16.7 kmh SE 17.3 mph27.8 kmh 30.49 in1032.5 mb - 0.00 in0.0 mm 0.00 in0.0 mm
01:10 AM 33.2°F0.7°C 27.1°F-2.7°C 78% 10.4 mph SE16.7 kmh SE 17.3 mph27.8 kmh 30.49 in1032.5 mb - 0.00 in0.0 mm 0.00 in0.0 mm
01:20 AM 33.2°F0.7°C 27.1°F-2.7°C 78% 8.1 mph ESE13.0 kmh ESE 16.1 mph25.9 kmh 30.49 in1032.5 mb - 0.00 in0.0 mm 0.00 in0.0 mm
01:30 AM 33.2°F0.7°C 27.1°F-2.7°C 78% 6.9 mph SE11.1 kmh SE 13.8 mph22.2 kmh 30.49 in1032.5 mb - 0.00 in0.0 mm 0.00 in0.0 mm
01:40 AM 33.1°F0.6°C 27.0°F-2.8°C 78% 4.6 mph SE7.4 kmh SE 9.2 mph14.8 kmh 30.49 in1032.5 mb - 0.00 in0.0 mm 0.00 in0.0 mm
01:50 AM 33.0°F0.6°C 26.9°F-2.8°C 78% 8.1 mph SE13.0 kmh SE 13.8 mph22.2 kmh 30.49 in1032.5 mb - 0.00 in0.0 mm 0.00 in0.0 mm
02:00 AM 33.1°F0.6°C 27.0°F-2.8°C 78% 8.1 mph ESE13.0 kmh ESE 17.3 mph27.8 kmh 30.49 in1032.5 mb - 0.00 in0.0 mm 0.00 in0.0 mm
02:10 AM 33.2°F0.7°C 27.1°F-2.7°C 78% 9.2 mph SE14.8 kmh SE 19.6 mph31.5 kmh 30.50 in1032.8 mb - 0.00 in0.0 mm 0.00 in0.0 mm
02:20 AM 33.3°F0.7°C 27.1°F-2.7°C 78% 5.8 mph SE9.3 kmh SE 11.5 mph18.5 kmh 30.50 in1032.8 mb - 0.00 in0.0 mm 0.00 in0.0 mm
02:30 AM 33.5°F0.8°C 27.1°F-2.7°C 77% 9.2 mph SE14.8 kmh SE 23.0 mph37.0 kmh 30.50 in1032.8 mb - 0.00 in0.0 mm 0.00 in0.0 mm
02:40 AM 33.7°F0.9°C 27.3°F-2.6°C 77% 8.1 mph SE13.0 kmh SE 11.5 mph18.5 kmh 30.49 in1032.5 mb - 0.00 in0.0 mm 0.00 in0.0 mm
02:50 AM 33.7°F0.9°C 27.3°F-2.6°C 77% 11.5 mph SE18.5 kmh SE 18.4 mph29.6 kmh 30.49 in1032.5 mb - 0.00 in0.0 mm 0.00 in0.0 mm
03:00 AM 33.7°F0.9°C 27.3°F-2.6°C 77% 11.5 mph SE18.5 kmh SE 17.3 mph27.8 kmh 30.49 in1032.5 mb - 0.00 in0.0 mm 0.00 in0.0 mm
03:10 AM 33.9°F1.1°C 27.4°F-2.6°C 77% 8.1 mph SE13.0 kmh SE 12.7 mph20.4 kmh 30.49 in1032.5 mb - 0.00 in0.0 mm 0.00 in0.0 mm
03:20 AM 34.0°F1.1°C 27.5°F-2.5°C 77% 10.4 mph SE16.7 kmh SE 16.1 mph25.9 kmh 30.48 in1032.2 mb - 0.00 in0.0 mm 0.00 in0.0 mm
03:30 AM 34.0°F1.1°C 27.5°F-2.5°C 77% 11.5 mph SE18.5 kmh SE 21.9 mph35.2 kmh 30.48 in1032.2 mb - 0.00 in0.0 mm 0.00 in0.0 mm
03:40 AM 34.2°F1.2°C 27.7°F-2.4°C 77% 11.5 mph SE18.5 kmh SE 24.2 mph38.9 kmh 30.48 in1032.2 mb - 0.00 in0.0 mm 0.00 in0.0 mm
03:50 AM 34.3°F1.3°C 27.8°F-2.3°C 77% 12.7 mph ESE20.4 kmh ESE 15.0 mph24.1 kmh 30.47 in1031.8 mb - 0.00 in0.0 mm 0.00 in0.0 mm
04:00 AM 34.3°F1.3°C 27.8°F-2.3°C 77% 12.7 mph SE20.4 kmh SE 20.7 mph33.3 kmh 30.47 in1031.8 mb - 0.00 in0.0 mm 0.00 in0.0 mm
04:10 AM 34.4°F1.3°C 27.9°F-2.3°C 77% 11.5 mph SE18.5 kmh SE 15.0 mph24.1 kmh 30.46 in1031.5 mb - 0.00 in0.0 mm 0.00 in0.0 mm
04:20 AM 34.3°F1.3°C 27.8°F-2.3°C 77% 9.2 mph SE14.8 kmh SE 13.8 mph22.2 kmh 30.46 in1031.5 mb - 0.00 in0.0 mm 0.00 in0.0 mm
04:30 AM 34.3°F1.3°C 27.8°F-2.3°C 77% 8.1 mph SE13.0 kmh SE 15.0 mph24.1 kmh 30.46 in1031.5 mb - 0.00 in0.0 mm 0.00 in0.0 mm
04:40 AM 34.4°F1.3°C 27.9°F-2.3°C 77% 11.5 mph SE18.5 kmh SE 17.3 mph27.8 kmh 30.46 in1031.5 mb - 0.00 in0.0 mm 0.00 in0.0 mm
04:50 AM 34.4°F1.3°C 27.9°F-2.3°C 77% 11.5 mph SE18.5 kmh SE 19.6 mph31.5 kmh 30.45 in1031.2 mb - 0.00 in0.0 mm 0.00 in0.0 mm
05:00 AM 34.3°F1.3°C 27.6°F-2.4°C 76% 6.9 mph SE11.1 kmh SE 11.5 mph18.5 kmh 30.46 in1031.5 mb - 0.00 in0.0 mm 0.00 in0.0 mm
05:10 AM 34.4°F1.3°C 27.9°F-2.3°C 77% 9.2 mph SE14.8 kmh SE 12.7 mph20.4 kmh 30.45 in1031.2 mb - 0.00 in0.0 mm 0.00 in0.0 mm
05:20 AM 34.4°F1.3°C 27.6°F-2.4°C 76% 10.4 mph SE16.7 kmh SE 18.4 mph29.6 kmh 30.45 in1031.2 mb - 0.00 in0.0 mm 0.00 in0.0 mm
05:30 AM 34.4°F1.3°C 27.7°F-2.4°C 76% 10.4 mph SE16.7 kmh SE 16.1 mph25.9 kmh 30.45 in1031.2 mb - 0.00 in0.0 mm 0.00 in0.0 mm
05:40 AM 34.6°F1.4°C 27.4°F-2.6°C 75% 9.2 mph SE14.8 kmh SE 19.6 mph31.5 kmh 30.45 in1031.2 mb - 0.00 in0.0 mm 0.00 in0.0 mm
05:50 AM 34.4°F1.3°C 27.3°F-2.6°C 75% 8.1 mph ESE13.0 kmh ESE 11.5 mph18.5 kmh 30.45 in1031.2 mb - 0.00 in0.0 mm 0.00 in0.0 mm
06:00 AM 34.4°F1.3°C 27.3°F-2.6°C 75% 9.2 mph ESE14.8 kmh ESE 11.5 mph18.5 kmh 30.46 in1031.5 mb - 0.00 in0.0 mm 0.00 in0.0 mm
06:10 AM 34.4°F1.3°C 27.3°F-2.6°C 75% 5.8 mph ESE9.3 kmh ESE 8.1 mph13.0 kmh 30.45 in1031.2 mb - 0.00 in0.0 mm 0.00 in0.0 mm
06:20 AM 34.4°F1.3°C 27.3°F-2.6°C 75% 12.7 mph SE20.4 kmh SE 18.4 mph29.6 kmh 30.45 in1031.2 mb - 0.00 in0.0 mm 0.00 in0.0 mm
06:30 AM 34.5°F1.4°C 27.4°F-2.6°C 75% 6.9 mph SE11.1 kmh SE 10.4 mph16.7 kmh 30.45 in1031.2 mb - 0.00 in0.0 mm 0.00 in0.0 mm
06:40 AM 34.6°F1.4°C 27.5°F-2.5°C 75% 6.9 mph SE11.1 kmh SE 15.0 mph24.1 kmh 30.45 in1031.2 mb - 0.00 in0.0 mm 0.00 in0.0 mm
06:50 AM 34.6°F1.4°C 27.2°F-2.7°C 74% 9.2 mph SE14.8 kmh SE 13.8 mph22.2 kmh 30.45 in1031.2 mb - 0.00 in0.0 mm 0.00 in0.0 mm
07:00 AM 34.6°F1.4°C 27.2°F-2.7°C 74% 10.4 mph SE16.7 kmh SE 19.6 mph31.5 kmh 30.45 in1031.2 mb - 0.00 in0.0 mm 0.00 in0.0 mm
07:10 AM 34.7°F1.5°C 27.3°F-2.6°C 74% 8.1 mph SE13.0 kmh SE 11.5 mph18.5 kmh 30.45 in1031.2 mb - 0.00 in0.0 mm 0.00 in0.0 mm
07:20 AM 34.7°F1.5°C 27.3°F-2.6°C 74% 9.2 mph SE14.8 kmh SE 15.0 mph24.1 kmh 30.45 in1031.2 mb - 0.00 in0.0 mm 0.00 in0.0 mm
07:30 AM 34.5°F1.4°C 27.1°F-2.7°C 74% 9.2 mph SE14.8 kmh SE 15.0 mph24.1 kmh 30.45 in1031.2 mb - 0.00 in0.0 mm 0.00 in0.0 mm
07:40 AM 34.6°F1.4°C 27.2°F-2.7°C 74% 8.1 mph SE13.0 kmh SE 10.4 mph16.7 kmh 30.45 in1031.2 mb - 0.00 in0.0 mm 0.00 in0.0 mm
07:50 AM 34.5°F1.4°C 27.1°F-2.7°C 74% 8.1 mph SE13.0 kmh SE 13.8 mph22.2 kmh 30.45 in1031.2 mb - 0.00 in0.0 mm 0.00 in0.0 mm
08:00 AM 34.4°F1.3°C 27.0°F-2.8°C 74% 12.7 mph ESE20.4 kmh ESE 20.7 mph33.3 kmh 30.45 in1031.2 mb - 0.00 in0.0 mm 0.00 in0.0 mm
08:10 AM 34.5°F1.4°C 27.1°F-2.7°C 74% 11.5 mph ESE18.5 kmh ESE 19.6 mph31.5 kmh 30.44 in1030.8 mb - 0.00 in0.0 mm 0.00 in0.0 mm
08:20 AM 34.5°F1.4°C 26.7°F-2.9°C 73% 12.7 mph ESE20.4 kmh ESE 17.3 mph27.8 kmh 30.44 in1030.8 mb - 0.00 in0.0 mm 0.00 in0.0 mm
08:30 AM 34.4°F1.3°C 26.6°F-3.0°C 73% 10.4 mph SE16.7 kmh SE 13.8 mph22.2 kmh 30.45 in1031.2 mb - 0.00 in0.0 mm 0.00 in0.0 mm
08:40 AM 34.5°F1.4°C 26.7°F-2.9°C 73% 11.5 mph SE18.5 kmh SE 17.3 mph27.8 kmh 30.45 in1031.2 mb - 0.00 in0.0 mm 0.00 in0.0 mm
08:50 AM 34.4°F1.3°C 26.6°F-3.0°C 73% 9.2 mph ESE14.8 kmh ESE 18.4 mph29.6 kmh 30.45 in1031.2 mb - 0.00 in0.0 mm 0.00 in0.0 mm
09:00 AM 34.5°F1.4°C 26.7°F-2.9°C 73% 9.2 mph SE14.8 kmh SE 13.8 mph22.2 kmh 30.45 in1031.2 mb - 0.00 in0.0 mm 0.00 in0.0 mm
09:10 AM 34.4°F1.3°C 26.6°F-3.0°C 73% 12.7 mph ESE20.4 kmh ESE 17.3 mph27.8 kmh 30.45 in1031.2 mb - 0.00 in0.0 mm 0.00 in0.0 mm
09:20 AM 34.4°F1.3°C 26.3°F-3.2°C 72% 9.2 mph SE14.8 kmh SE 19.6 mph31.5 kmh 30.45 in1031.2 mb - 0.00 in0.0 mm 0.00 in0.0 mm
09:30 AM 34.4°F1.3°C 26.3°F-3.2°C 72% 12.7 mph SE20.4 kmh SE 19.6 mph31.5 kmh 30.45 in1031.2 mb - 0.00 in0.0 mm 0.00 in0.0 mm
09:40 AM 34.3°F1.3°C 26.2°F-3.2°C 72% 11.5 mph SE18.5 kmh SE 20.7 mph33.3 kmh 30.45 in1031.2 mb - 0.00 in0.0 mm 0.00 in0.0 mm
09:50 AM 34.4°F1.3°C 26.0°F-3.3°C 71% 9.2 mph SE14.8 kmh SE 17.3 mph27.8 kmh 30.45 in1031.2 mb - 0.00 in0.0 mm 0.00 in0.0 mm
10:00 AM 34.4°F1.3°C 26.0°F-3.3°C 71% 12.7 mph SE20.4 kmh SE 16.1 mph25.9 kmh 30.45 in1031.2 mb - 0.00 in0.0 mm 0.00 in0.0 mm
10:10 AM 34.4°F1.3°C 26.0°F-3.3°C 71% 12.7 mph SE20.4 kmh SE 19.6 mph31.5 kmh 30.45 in1031.2 mb - 0.00 in0.0 mm 0.00 in0.0 mm
10:20 AM 33.9°F1.1°C 24.8°F-4.0°C 69% 8.1 mph WSW13.0 kmh WSW 12.7 mph20.4 kmh 30.46 in1031.5 mb - 0.00 in0.0 mm 0.00 in0.0 mm
10:30 AM 33.9°F1.1°C 24.8°F-4.0°C 69% 4.6 mph WNW7.4 kmh WNW 9.2 mph14.8 kmh 30.45 in1031.2 mb - 0.00 in0.0 mm 0.00 in0.0 mm
10:40 AM 33.9°F1.1°C 24.8°F-4.0°C 69% 9.2 mph SE14.8 kmh SE 19.6 mph31.5 kmh 30.45 in1031.2 mb - 0.00 in0.0 mm 0.00 in0.0 mm
10:50 AM 33.9°F1.1°C 24.4°F-4.2°C 68% 8.1 mph WNW13.0 kmh WNW 12.7 mph20.4 kmh 30.46 in1031.5 mb - 0.00 in0.0 mm 0.00 in0.0 mm
11:00 AM 33.9°F1.1°C 24.8°F-4.0°C 69% 3.5 mph SE5.6 kmh SE 13.8 mph22.2 kmh 30.46 in1031.5 mb - 0.00 in0.0 mm 0.00 in0.0 mm
11:10 AM 33.8°F1.0°C 24.3°F-4.3°C 68% 8.1 mph SE13.0 kmh SE 15.0 mph24.1 kmh 30.46 in1031.5 mb - 0.00 in0.0 mm 0.00 in0.0 mm
11:20 AM 33.7°F0.9°C 24.6°F-4.1°C 69% 6.9 mph NW11.1 kmh NW 20.7 mph33.3 kmh 30.46 in1031.5 mb - 0.00 in0.0 mm 0.00 in0.0 mm
11:30 AM 33.7°F0.9°C 24.3°F-4.3°C 68% 8.1 mph NNW13.0 kmh NNW 11.5 mph18.5 kmh 30.46 in1031.5 mb - 0.00 in0.0 mm 0.00 in0.0 mm
11:40 AM 34.0°F1.1°C 24.5°F-4.2°C 68% 5.8 mph NNE9.3 kmh NNE 11.5 mph18.5 kmh 30.46 in1031.5 mb - 0.00 in0.0 mm 0.00 in0.0 mm
11:50 AM 34.1°F1.2°C 24.6°F-4.1°C 68% 8.1 mph W13.0 kmh W 12.7 mph20.4 kmh 30.46 in1031.5 mb - 0.00 in0.0 mm 0.00 in0.0 mm
12:00 PM 34.3°F1.3°C 24.8°F-4.0°C 68% 8.1 mph WNW13.0 kmh WNW 15.0 mph24.1 kmh 30.45 in1031.2 mb - 0.00 in0.0 mm 0.00 in0.0 mm
12:10 PM 34.4°F1.3°C 24.9°F-3.9°C 68% 5.8 mph NNW9.3 kmh NNW 11.5 mph18.5 kmh 30.45 in1031.2 mb - 0.00 in0.0 mm 0.00 in0.0 mm
12:20 PM 34.6°F1.4°C 25.1°F-3.8°C 68% 5.8 mph WSW9.3 kmh WSW 9.2 mph14.8 kmh 30.45 in1031.2 mb - 0.00 in0.0 mm 0.00 in0.0 mm
12:30 PM 34.7°F1.5°C 25.2°F-3.8°C 68% 5.8 mph WNW9.3 kmh WNW 12.7 mph20.4 kmh 30.45 in1031.2 mb - 0.00 in0.0 mm 0.00 in0.0 mm
12:40 PM 34.8°F1.6°C 25.3°F-3.7°C 68% 3.5 mph SSW5.6 kmh SSW 9.2 mph14.8 kmh 30.45 in1031.2 mb - 0.00 in0.0 mm 0.00 in0.0 mm
12:50 PM 34.7°F1.5°C 25.6°F-3.6°C 69% 4.6 mph ESE7.4 kmh ESE 16.1 mph25.9 kmh 30.45 in1031.2 mb - 0.00 in0.0 mm 0.00 in0.0 mm
01:00 PM 34.7°F1.5°C 25.6°F-3.6°C 69% 5.8 mph N9.3 kmh N 12.7 mph20.4 kmh 30.45 in1031.2 mb - 0.00 in0.0 mm 0.00 in0.0 mm
01:10 PM 34.8°F1.6°C 25.7°F-3.5°C 69% 5.8 mph WSW9.3 kmh WSW 11.5 mph18.5 kmh 30.45 in1031.2 mb - 0.00 in0.0 mm 0.00 in0.0 mm
01:20 PM 34.8°F1.6°C 25.7°F-3.5°C 69% 3.5 mph SE5.6 kmh SE 6.9 mph11.1 kmh 30.45 in1031.2 mb - 0.00 in0.0 mm 0.00 in0.0 mm
01:30 PM 34.8°F1.6°C 25.7°F-3.5°C 69% 6.9 mph N11.1 kmh N 12.7 mph20.4 kmh 30.45 in1031.2 mb - 0.00 in0.0 mm 0.00 in0.0 mm
01:40 PM 34.9°F1.6°C 25.8°F-3.4°C 69% 5.8 mph N9.3 kmh N 11.5 mph18.5 kmh 30.45 in1031.2 mb - 0.00 in0.0 mm 0.00 in0.0 mm
01:50 PM 35.0°F1.7°C 25.9°F-3.4°C 69% 4.6 mph W7.4 kmh W 10.4 mph16.7 kmh 30.45 in1031.2 mb - 0.00 in0.0 mm 0.00 in0.0 mm
02:00 PM 35.0°F1.7°C 26.2°F-3.2°C 70% 4.6 mph ESE7.4 kmh ESE 6.9 mph11.1 kmh 30.45 in1031.2 mb - 0.00 in0.0 mm 0.00 in0.0 mm
02:10 PM 34.8°F1.6°C 26.0°F-3.3°C 70% 5.8 mph SSE9.3 kmh SSE 10.4 mph16.7 kmh 30.45 in1031.2 mb - 0.00 in0.0 mm 0.00 in0.0 mm
02:20 PM 34.8°F1.6°C 26.0°F-3.3°C 70% 4.6 mph SE7.4 kmh SE 4.6 mph7.4 kmh 30.45 in1031.2 mb - 0.00 in0.0 mm 0.00 in0.0 mm
02:30 PM 34.6°F1.4°C 26.2°F-3.2°C 71% 3.5 mph ESE5.6 kmh ESE 9.2 mph14.8 kmh 30.45 in1031.2 mb - 0.00 in0.0 mm 0.00 in0.0 mm
02:40 PM 34.5°F1.4°C 26.4°F-3.1°C 72% 5.8 mph W9.3 kmh W 15.0 mph24.1 kmh 30.44 in1030.8 mb - 0.00 in0.0 mm 0.00 in0.0 mm
02:50 PM 34.5°F1.4°C 26.4°F-3.1°C 72% 8.1 mph ESE13.0 kmh ESE 11.5 mph18.5 kmh 30.44 in1030.8 mb - 0.00 in0.0 mm 0.00 in0.0 mm
03:00 PM 34.5°F1.4°C 26.4°F-3.1°C 72% 4.6 mph SE7.4 kmh SE 9.2 mph14.8 kmh 30.43 in1030.5 mb - 0.00 in0.0 mm 0.00 in0.0 mm
03:10 PM 34.6°F1.4°C 26.5°F-3.1°C 72% 5.8 mph WNW9.3 kmh WNW 11.5 mph18.5 kmh 30.43 in1030.5 mb - 0.00 in0.0 mm 0.00 in0.0 mm
03:20 PM 34.5°F1.4°C 26.7°F-2.9°C 73% 5.8 mph ESE9.3 kmh ESE 9.2 mph14.8 kmh 30.42 in1030.1 mb - 0.00 in0.0 mm 0.00 in0.0 mm
03:30 PM 34.5°F1.4°C 26.7°F-2.9°C 73% 4.6 mph SW7.4 kmh SW 9.2 mph14.8 kmh 30.42 in1030.1 mb - 0.00 in0.0 mm 0.00 in0.0 mm
03:40 PM 34.5°F1.4°C 26.8°F-2.9°C 73% 4.6 mph E7.4 kmh E 15.0 mph24.1 kmh 30.42 in1030.1 mb - 0.00 in0.0 mm 0.00 in0.0 mm
03:50 PM 34.5°F1.4°C 26.8°F-2.9°C 73% 5.8 mph NNW9.3 kmh NNW 11.5 mph18.5 kmh 30.42 in1030.1 mb - 0.00 in0.0 mm 0.00 in0.0 mm
04:00 PM 34.6°F1.4°C 26.5°F-3.1°C 72% 5.8 mph S9.3 kmh S 10.4 mph16.7 kmh 30.41 in1029.8 mb - 0.00 in0.0 mm 0.00 in0.0 mm
04:10 PM 34.8°F1.6°C 27.0°F-2.8°C 73% 3.5 mph E5.6 kmh E 10.4 mph16.7 kmh 30.42 in1030.1 mb - 0.00 in0.0 mm 0.00 in0.0 mm
04:20 PM 34.9°F1.6°C 26.8°F-2.9°C 72% 3.5 mph SSW5.6 kmh SSW 3.5 mph5.6 kmh 30.41 in1029.8 mb - 0.00 in0.0 mm 0.00 in0.0 mm
04:30 PM 35.0°F1.7°C 26.9°F-2.8°C 72% 3.5 mph S5.6 kmh S 10.4 mph16.7 kmh 30.41 in1029.8 mb - 0.00 in0.0 mm 0.00 in0.0 mm
04:40 PM 35.0°F1.7°C 26.9°F-2.8°C 72% 9.2 mph WSW14.8 kmh WSW 16.1 mph25.9 kmh 30.41 in1029.8 mb - 0.00 in0.0 mm 0.00 in0.0 mm
04:50 PM 35.0°F1.7°C 26.9°F-2.8°C 72% 4.6 mph E7.4 kmh E 11.5 mph18.5 kmh 30.42 in1030.1 mb - 0.00 in0.0 mm 0.00 in0.0 mm
05:00 PM 35.0°F1.7°C 27.2°F-2.7°C 73% 4.6 mph NNE7.4 kmh NNE 8.1 mph13.0 kmh 30.42 in1030.1 mb - 0.00 in0.0 mm 0.00 in0.0 mm
05:10 PM 35.0°F1.7°C 27.2°F-2.7°C 73% 5.8 mph WSW9.3 kmh WSW 9.2 mph14.8 kmh 30.42 in1030.1 mb - 0.00 in0.0 mm 0.00 in0.0 mm
05:20 PM 34.9°F1.6°C 27.2°F-2.7°C 73% 5.8 mph NW9.3 kmh NW 11.5 mph18.5 kmh 30.42 in1030.1 mb - 0.00 in0.0 mm 0.00 in0.0 mm
05:30 PM 34.9°F1.6°C 27.1°F-2.7°C 73% 6.9 mph SSW11.1 kmh SSW 11.5 mph18.5 kmh 30.41 in1029.8 mb - 0.00 in0.0 mm 0.00 in0.0 mm
05:40 PM 34.8°F1.6°C 27.3°F-2.6°C 74% 5.8 mph WSW9.3 kmh WSW 11.5 mph18.5 kmh 30.40 in1029.5 mb - 0.00 in0.0 mm 0.00 in0.0 mm
05:50 PM 34.7°F1.5°C 27.3°F-2.6°C 74% 8.1 mph W13.0 kmh W 19.6 mph31.5 kmh 30.40 in1029.5 mb - 0.00 in0.0 mm 0.00 in0.0 mm
06:00 PM 34.8°F1.6°C 27.0°F-2.8°C 73% 10.4 mph NW16.7 kmh NW 18.4 mph29.6 kmh 30.39 in1029.1 mb - 0.00 in0.0 mm 0.00 in0.0 mm
06:10 PM 34.8°F1.6°C 27.4°F-2.6°C 74% 9.2 mph NW14.8 kmh NW 17.3 mph27.8 kmh 30.39 in1029.1 mb - 0.00 in0.0 mm 0.00 in0.0 mm
06:20 PM 34.7°F1.5°C 27.3°F-2.6°C 74% 9.2 mph WNW14.8 kmh WNW 15.0 mph24.1 kmh 30.39 in1029.1 mb - 0.00 in0.0 mm 0.00 in0.0 mm
06:30 PM 34.6°F1.4°C 27.2°F-2.7°C 74% 6.9 mph W11.1 kmh W 15.0 mph24.1 kmh 30.39 in1029.1 mb - 0.00 in0.0 mm 0.00 in0.0 mm
06:40 PM 34.6°F1.4°C 27.5°F-2.5°C 75% 8.1 mph SE13.0 kmh SE 11.5 mph18.5 kmh 30.39 in1029.1 mb - 0.00 in0.0 mm 0.00 in0.0 mm
06:50 PM 34.6°F1.4°C 27.5°F-2.5°C 75% 8.1 mph W13.0 kmh W 15.0 mph24.1 kmh 30.39 in1029.1 mb - 0.00 in0.0 mm 0.00 in0.0 mm
07:00 PM 34.6°F1.4°C 27.5°F-2.5°C 75% 8.1 mph WNW13.0 kmh WNW 18.4 mph29.6 kmh 30.39 in1029.1 mb - 0.00 in0.0 mm 0.00 in0.0 mm
07:10 PM 34.7°F1.5°C 27.6°F-2.4°C 75% 9.2 mph WSW14.8 kmh WSW 12.7 mph20.4 kmh 30.39 in1029.1 mb - 0.00 in0.0 mm 0.00 in0.0 mm
07:20 PM 34.9°F1.6°C 27.5°F-2.5°C 74% 10.4 mph WSW16.7 kmh WSW 16.1 mph25.9 kmh 30.39 in1029.1 mb - 0.00 in0.0 mm 0.00 in0.0 mm
07:30 PM 35.0°F1.7°C 27.5°F-2.5°C 74% 8.1 mph W13.0 kmh W 13.8 mph22.2 kmh 30.38 in1028.8 mb - 0.00 in0.0 mm 0.00 in0.0 mm
07:40 PM 35.3°F1.8°C 27.8°F-2.3°C 74% 6.9 mph NW11.1 kmh NW 11.5 mph18.5 kmh 30.38 in1028.8 mb - 0.00 in0.0 mm 0.00 in0.0 mm
07:50 PM 35.5°F1.9°C 27.7°F-2.4°C 73% 10.4 mph NW16.7 kmh NW 17.3 mph27.8 kmh 30.38 in1028.8 mb - 0.00 in0.0 mm 0.00 in0.0 mm
08:00 PM 35.5°F1.9°C 27.7°F-2.4°C 73% 9.2 mph WNW14.8 kmh WNW 13.8 mph22.2 kmh 30.37 in1028.4 mb - 0.00 in0.0 mm 0.00 in0.0 mm
08:10 PM 35.6°F2.0°C 27.8°F-2.3°C 73% 10.4 mph WNW16.7 kmh WNW 18.4 mph29.6 kmh 30.37 in1028.4 mb - 0.00 in0.0 mm 0.00 in0.0 mm
08:20 PM 35.5°F1.9°C 27.7°F-2.4°C 73% 5.8 mph NW9.3 kmh NW 11.5 mph18.5 kmh 30.37 in1028.4 mb - 0.00 in0.0 mm 0.00 in0.0 mm
08:30 PM 35.5°F1.9°C 27.7°F-2.4°C 73% 9.2 mph WNW14.8 kmh WNW 15.0 mph24.1 kmh 30.37 in1028.4 mb - 0.00 in0.0 mm 0.00 in0.0 mm
08:40 PM 35.6°F2.0°C 27.8°F-2.3°C 73% 8.1 mph NNW13.0 kmh NNW 16.1 mph25.9 kmh 30.37 in1028.4 mb - 0.00 in0.0 mm 0.00 in0.0 mm
08:50 PM 35.7°F2.1°C 27.5°F-2.5°C 72% 9.2 mph NW14.8 kmh NW 19.6 mph31.5 kmh 30.37 in1028.4 mb - 0.00 in0.0 mm 0.00 in0.0 mm
09:00 PM 35.7°F2.1°C 27.5°F-2.5°C 72% 10.4 mph NW16.7 kmh NW 17.3 mph27.8 kmh 30.37 in1028.4 mb - 0.00 in0.0 mm 0.00 in0.0 mm
09:10 PM 35.8°F2.1°C 27.6°F-2.4°C 72% 6.9 mph N11.1 kmh N 17.3 mph27.8 kmh 30.37 in1028.4 mb - 0.00 in0.0 mm 0.00 in0.0 mm
09:20 PM 35.8°F2.1°C 27.6°F-2.4°C 72% 9.2 mph W14.8 kmh W 13.8 mph22.2 kmh 30.36 in1028.1 mb - 0.00 in0.0 mm 0.00 in0.0 mm
09:30 PM 35.7°F2.1°C 27.6°F-2.4°C 72% 9.2 mph WNW14.8 kmh WNW 17.3 mph27.8 kmh 30.36 in1028.1 mb - 0.00 in0.0 mm 0.00 in0.0 mm
09:40 PM 35.6°F2.0°C 27.5°F-2.5°C 72% 10.4 mph SW16.7 kmh SW 16.1 mph25.9 kmh 30.36 in1028.1 mb - 0.00 in0.0 mm 0.00 in0.0 mm
09:50 PM 35.7°F2.1°C 27.5°F-2.5°C 72% 8.1 mph ENE13.0 kmh ENE 15.0 mph24.1 kmh 30.36 in1028.1 mb - 0.00 in0.0 mm 0.00 in0.0 mm
10:00 PM 35.6°F2.0°C 27.5°F-2.5°C 72% 6.9 mph SW11.1 kmh SW 15.0 mph24.1 kmh 30.36 in1028.1 mb - 0.00 in0.0 mm 0.00 in0.0 mm
10:10 PM 35.6°F2.0°C 27.4°F-2.6°C 72% 10.4 mph NNW16.7 kmh NNW 17.3 mph27.8 kmh 30.36 in1028.1 mb - 0.00 in0.0 mm 0.00 in0.0 mm
10:20 PM 35.6°F2.0°C 27.8°F-2.3°C 73% 9.2 mph W14.8 kmh W 16.1 mph25.9 kmh 30.36 in1028.1 mb - 0.00 in0.0 mm 0.00 in0.0 mm
10:30 PM 35.6°F2.0°C 27.5°F-2.5°C 72% 8.1 mph W13.0 kmh W 15.0 mph24.1 kmh 30.36 in1028.1 mb - 0.00 in0.0 mm 0.00 in0.0 mm
10:40 PM 35.6°F2.0°C 27.8°F-2.3°C 73% 9.2 mph WSW14.8 kmh WSW 11.5 mph18.5 kmh 30.36 in1028.1 mb - 0.00 in0.0 mm 0.00 in0.0 mm
10:50 PM 35.5°F1.9°C 27.7°F-2.4°C 73% 10.4 mph WSW16.7 kmh WSW 16.1 mph25.9 kmh 30.36 in1028.1 mb - 0.00 in0.0 mm 0.00 in0.0 mm
11:00 PM 35.5°F1.9°C 27.7°F-2.4°C 73% 6.9 mph WSW11.1 kmh WSW 16.1 mph25.9 kmh 30.36 in1028.1 mb - 0.00 in0.0 mm 0.00 in0.0 mm
11:10 PM 35.4°F1.9°C 27.6°F-2.4°C 73% 6.9 mph NW11.1 kmh NW 11.5 mph18.5 kmh 30.37 in1028.4 mb - 0.00 in0.0 mm 0.00 in0.0 mm
11:20 PM 35.3°F1.8°C 27.8°F-2.3°C 74% 6.9 mph SW11.1 kmh SW 15.0 mph24.1 kmh 30.37 in1028.4 mb - 0.00 in0.0 mm 0.00 in0.0 mm
11:30 PM 35.3°F1.8°C 27.5°F-2.5°C 73% 9.2 mph WSW14.8 kmh WSW 15.0 mph24.1 kmh 30.38 in1028.8 mb - 0.00 in0.0 mm 0.00 in0.0 mm
11:40 PM 35.4°F1.9°C 27.6°F-2.4°C 73% 4.6 mph SW7.4 kmh SW 6.9 mph11.1 kmh 30.37 in1028.4 mb - 0.00 in0.0 mm 0.00 in0.0 mm
11:50 PM 35.4°F1.9°C 27.3°F-2.6°C 72% 9.2 mph W14.8 kmh W 17.3 mph27.8 kmh 30.37 in1028.4 mb - 0.00 in0.0 mm 0.00 in0.0 mm